Time;durP1;ratioP1;P1;durP2;ratioP2;P2;SDS_P1;SDS_P2;PMS_P1;PMS_P2;Temp;Humidity;BMP_temperature;BMP_pressure;BME280_temperature;BME280_humidity;BME280_pressure;Samples;Min_cycle;Max_cycle;Signal;HPM_P1;HPM_P2
2024/01/29 00:01:56;;;;;;;11.17;6.00;;;5.20;99.90;;;;;;5083884;28;20606;-67
2024/01/29 00:04:23;;;;;;;10.93;6.27;;;5.20;99.90;;;;;;5066721;28;20202;-68
2024/01/29 00:06:51;;;;;;;9.73;5.53;;;5.20;99.90;;;;;;5077864;28;20827;-67
2024/01/29 00:09:19;;;;;;;9.37;5.23;;;5.20;99.90;;;;;;5069181;28;20253;-67
2024/01/29 00:11:46;;;;;;;11.03;5.87;;;5.20;99.90;;;;;;5058084;28;20278;-68
2024/01/29 00:14:13;;;;;;;11.67;5.67;;;5.30;99.90;;;;;;5063657;28;20215;-68
2024/01/29 00:16:41;;;;;;;13.57;6.80;;;5.20;99.90;;;;;;5054519;28;20253;-67
2024/01/29 00:19:08;;;;;;;14.13;6.87;;;5.30;99.90;;;;;;5079009;28;20196;-68
2024/01/29 00:21:37;;;;;;;13.90;6.43;;;5.30;99.90;;;;;;5071139;28;20795;-68
2024/01/29 00:24:06;;;;;;;12.63;6.30;;;5.30;99.90;;;;;;5067673;28;20256;-66
2024/01/29 00:26:33;;;;;;;14.60;7.10;;;5.30;99.90;;;;;;5073248;28;20195;-67
2024/01/29 00:29:00;;;;;;;12.00;6.67;;;5.30;99.90;;;;;;5070820;28;20292;-66
2024/01/29 00:31:29;;;;;;;12.20;7.10;;;5.30;99.90;;;;;;5069053;28;20209;-67
2024/01/29 00:33:56;;;;;;;11.67;6.80;;;5.20;99.90;;;;;;5067953;28;20214;-66
2024/01/29 00:36:23;;;;;;;15.03;7.23;;;5.20;99.90;;;;;;5064822;28;20541;-66
2024/01/29 00:38:50;;;;;;;18.47;6.90;;;5.20;99.90;;;;;;5073193;28;20245;-67
2024/01/29 00:41:18;;;;;;;11.83;6.03;;;5.20;99.90;;;;;;5073200;28;20191;-67
2024/01/29 00:43:45;;;;;;;14.93;6.90;;;5.20;99.90;;;;;;5071652;28;20194;-67
2024/01/29 00:46:13;;;;;;;17.37;7.33;;;5.10;99.90;;;;;;5065275;28;20623;-67
2024/01/29 00:48:40;;;;;;;14.13;7.37;;;5.10;99.90;;;;;;5071538;28;20263;-68
2024/01/29 00:51:07;;;;;;;16.77;7.50;;;5.10;99.90;;;;;;5070625;28;20223;-68
2024/01/29 00:53:34;;;;;;;16.33;8.07;;;5.20;99.90;;;;;;5072298;28;20201;-67
2024/01/29 00:56:01;;;;;;;20.03;8.30;;;5.20;99.90;;;;;;5070140;28;20279;-67
2024/01/29 00:58:30;;;;;;;17.67;8.13;;;5.20;99.90;;;;;;5070290;28;20724;-67
2024/01/29 01:00:57;;;;;;;13.60;7.23;;;5.10;99.90;;;;;;5066919;28;20288;-67
2024/01/29 01:03:24;;;;;;;14.13;7.63;;;5.10;99.90;;;;;;5084740;28;20664;-67
2024/01/29 01:05:51;;;;;;;13.67;6.33;;;5.10;99.90;;;;;;5071023;28;20209;-67
2024/01/29 01:08:18;;;;;;;16.00;7.30;;;5.10;99.90;;;;;;5070938;28;20273;-68
2024/01/29 01:10:45;;;;;;;9.00;6.20;;;5.10;99.90;;;;;;5071579;28;20565;-67
2024/01/29 01:13:12;;;;;;;15.13;6.20;;;5.10;99.90;;;;;;5064710;28;20280;-67
2024/01/29 01:15:40;;;;;;;11.57;6.40;;;5.00;99.90;;;;;;5068129;28;20264;-67
2024/01/29 01:18:08;;;;;;;8.90;5.83;;;5.10;99.90;;;;;;5070891;28;20187;-67
2024/01/29 01:20:38;;;;;;;11.67;6.87;;;5.10;99.90;;;;;;5072714;28;20240;-69
2024/01/29 01:23:05;;;;;;;11.93;7.13;;;5.00;99.90;;;;;;5072424;28;20191;-68
2024/01/29 01:25:32;;;;;;;13.80;7.17;;;5.10;99.90;;;;;;5071694;28;20230;-67
2024/01/29 01:27:59;;;;;;;17.17;7.90;;;5.10;99.90;;;;;;5069724;28;20218;-67
2024/01/29 01:30:26;;;;;;;13.03;7.63;;;5.10;99.90;;;;;;5071613;28;20692;-67
2024/01/29 01:32:54;;;;;;;10.83;6.87;;;5.10;99.90;;;;;;5071065;28;20230;-67
2024/01/29 01:35:21;;;;;;;12.30;7.23;;;5.10;99.90;;;;;;5071756;28;20218;-67
2024/01/29 01:37:48;;;;;;;14.07;7.40;;;5.10;99.90;;;;;;5071210;28;20298;-67
2024/01/29 01:40:16;;;;;;;15.77;8.10;;;5.10;99.90;;;;;;5073342;28;20419;-67
2024/01/29 01:42:44;;;;;;;17.93;8.77;;;5.10;99.90;;;;;;5069595;28;20201;-67
2024/01/29 01:45:12;;;;;;;14.47;8.37;;;5.10;99.90;;;;;;5071076;28;20257;-68
2024/01/29 01:47:39;;;;;;;17.07;8.13;;;5.10;99.90;;;;;;5070766;28;20269;-67
2024/01/29 01:50:10;;;;;;;16.67;8.50;;;5.10;99.90;;;;;;5071994;28;20198;-67
2024/01/29 01:52:39;;;;;;;17.97;10.03;;;5.10;99.90;;;;;;5071886;28;20200;-68
2024/01/29 01:55:07;;;;;;;17.93;9.37;;;5.10;99.90;;;;;;5070151;28;20597;-67
2024/01/29 01:57:34;;;;;;;18.60;9.63;;;5.10;99.90;;;;;;5058446;28;20691;-68
2024/01/29 02:00:02;;;;;;;20.80;9.63;;;5.10;99.90;;;;;;5071568;28;20282;-67
2024/01/29 02:02:34;;;;;;;20.77;10.47;;;5.10;99.90;;;;;;5462018;22;20241;-67
2024/01/29 02:05:02;;;;;;;20.97;10.30;;;5.10;99.90;;;;;;5043526;28;20206;-65
2024/01/29 02:07:30;;;;;;;20.90;10.70;;;5.10;99.90;;;;;;5051655;28;20550;-65
2024/01/29 02:09:57;;;;;;;25.47;11.83;;;5.10;99.90;;;;;;5044741;28;20317;-66
2024/01/29 02:12:25;;;;;;;19.47;10.67;;;5.00;99.90;;;;;;5044696;28;20194;-66
2024/01/29 02:14:52;;;;;;;22.57;10.73;;;5.00;99.90;;;;;;5049322;28;20205;-66
2024/01/29 02:17:19;;;;;;;22.53;11.87;;;5.00;99.90;;;;;;5049769;28;20211;-66
2024/01/29 02:19:46;;;;;;;21.80;12.40;;;5.00;99.90;;;;;;5049529;28;20202;-66
2024/01/29 02:22:13;;;;;;;23.20;12.07;;;4.90;99.90;;;;;;5046549;28;20244;-67
2024/01/29 02:24:43;;;;;;;23.20;11.23;;;4.90;99.90;;;;;;5050094;28;20261;-67
2024/01/29 02:27:10;;;;;;;22.67;11.40;;;4.90;99.90;;;;;;5046773;28;20633;-66
2024/01/29 02:29:37;;;;;;;26.33;12.90;;;4.90;99.90;;;;;;5046871;28;20693;-66
2024/01/29 02:32:04;;;;;;;19.10;11.27;;;4.90;99.90;;;;;;5045543;28;20516;-66
2024/01/29 02:34:31;;;;;;;25.20;12.60;;;4.90;99.90;;;;;;5049888;28;20190;-68
2024/01/29 02:36:58;;;;;;;26.10;11.97;;;4.90;99.90;;;;;;5050410;28;20678;-67
2024/01/29 02:39:25;;;;;;;26.43;12.93;;;4.90;99.90;;;;;;5049670;28;20238;-66
2024/01/29 02:41:54;;;;;;;24.27;12.83;;;4.90;99.90;;;;;;5038759;28;20693;-66
2024/01/29 02:44:21;;;;;;;27.70;13.47;;;4.90;99.90;;;;;;5046748;28;20199;-67
2024/01/29 02:46:48;;;;;;;29.50;14.27;;;4.80;99.90;;;;;;5049284;28;20662;-67
2024/01/29 02:49:15;;;;;;;24.83;13.40;;;4.80;99.90;;;;;;5049975;28;20186;-65
2024/01/29 02:51:41;;;;;;;25.87;13.20;;;4.80;99.90;;;;;;5050222;28;20225;-67
2024/01/29 02:54:08;;;;;;;32.57;13.73;;;4.80;99.90;;;;;;5046504;28;20629;-67
2024/01/29 02:56:35;;;;;;;25.33;13.23;;;4.80;99.90;;;;;;5050078;28;20202;-67
2024/01/29 02:59:03;;;;;;;22.53;13.43;;;4.80;99.90;;;;;;5047778;28;20219;-66
2024/01/29 03:01:30;;;;;;;26.30;12.70;;;4.80;99.90;;;;;;5049737;28;20202;-66
2024/01/29 03:03:57;;;;;;;30.80;14.00;;;4.80;99.90;;;;;;5048205;28;20230;-66
2024/01/29 03:06:24;;;;;;;25.43;12.43;;;4.80;99.90;;;;;;5050374;28;20199;-66
2024/01/29 03:08:52;;;;;;;22.63;12.60;;;4.80;99.90;;;;;;5049111;28;20965;-66
2024/01/29 03:11:18;;;;;;;26.77;13.67;;;4.80;99.90;;;;;;5050228;28;20214;-65
2024/01/29 03:13:47;;;;;;;23.17;12.70;;;4.80;99.90;;;;;;5048162;28;20266;-67
2024/01/29 03:16:15;;;;;;;27.20;13.90;;;4.70;99.90;;;;;;5049812;28;20195;-67
2024/01/29 03:18:42;;;;;;;22.00;12.43;;;4.70;99.90;;;;;;5048627;28;20752;-67
2024/01/29 03:21:10;;;;;;;20.43;11.53;;;4.70;99.90;;;;;;5049337;28;20206;-66
2024/01/29 03:23:37;;;;;;;21.93;12.17;;;4.70;99.90;;;;;;5047243;28;20345;-66
2024/01/29 03:26:04;;;;;;;23.33;12.80;;;4.70;99.90;;;;;;5048314;28;20256;-66
2024/01/29 03:28:31;;;;;;;28.10;12.87;;;4.70;99.90;;;;;;5049698;28;20202;-66
2024/01/29 03:30:58;;;;;;;27.07;12.10;;;4.80;99.90;;;;;;5048642;28;20514;-66
2024/01/29 03:33:26;;;;;;;24.13;12.93;;;4.80;99.90;;;;;;5047789;28;20227;-67
2024/01/29 03:35:53;;;;;;;20.73;11.40;;;4.70;99.90;;;;;;5049009;28;20286;-66
2024/01/29 03:38:20;;;;;;;23.43;12.73;;;4.70;99.90;;;;;;5049205;28;20278;-67
2024/01/29 03:40:47;;;;;;;25.63;14.93;;;4.70;99.90;;;;;;5049790;28;20197;-66
2024/01/29 03:43:15;;;;;;;27.07;13.77;;;4.70;99.90;;;;;;5048855;28;20276;-66
2024/01/29 03:45:43;;;;;;;24.93;13.67;;;4.60;99.90;;;;;;5046372;28;20205;-67
2024/01/29 03:48:10;;;;;;;26.07;13.67;;;4.60;99.90;;;;;;5048729;28;20202;-67
2024/01/29 03:50:38;;;;;;;30.07;14.30;;;4.60;99.90;;;;;;5047262;28;20229;-66
2024/01/29 03:53:05;;;;;;;18.97;11.43;;;4.60;99.90;;;;;;5049271;28;20194;-66
2024/01/29 03:55:32;;;;;;;28.60;13.17;;;4.70;99.90;;;;;;5047659;28;20772;-66
2024/01/29 03:57:59;;;;;;;26.20;13.60;;;4.60;99.90;;;;;;5049302;28;20561;-66
2024/01/29 04:00:26;;;;;;;27.93;13.97;;;4.60;99.90;;;;;;5043870;28;20288;-67
2024/01/29 04:02:53;;;;;;;24.37;12.03;;;4.60;99.90;;;;;;5045928;28;20320;-66
2024/01/29 04:05:20;;;;;;;24.13;12.97;;;4.60;99.90;;;;;;5041716;28;20256;-66
2024/01/29 04:07:49;;;;;;;28.50;13.97;;;4.50;99.90;;;;;;5047874;28;20194;-66
2024/01/29 04:10:17;;;;;;;26.27;13.70;;;4.50;99.90;;;;;;5041854;28;20251;-66
2024/01/29 04:12:47;;;;;;;27.80;14.30;;;4.50;99.90;;;;;;5044227;28;20687;-65
2024/01/29 04:15:14;;;;;;;26.43;13.80;;;4.50;99.90;;;;;;5044782;28;20198;-66
2024/01/29 04:17:41;;;;;;;23.57;13.40;;;4.40;99.90;;;;;;5047824;28;20195;-66
2024/01/29 04:20:09;;;;;;;24.57;12.70;;;4.40;99.90;;;;;;5040018;28;20218;-66
2024/01/29 04:22:36;;;;;;;25.63;13.23;;;4.40;99.90;;;;;;5047595;28;20277;-67
2024/01/29 04:25:06;;;;;;;26.53;13.33;;;4.40;99.90;;;;;;5048281;28;20198;-66
2024/01/29 04:27:33;;;;;;;26.87;13.03;;;4.40;99.90;;;;;;5048368;28;20587;-67
2024/01/29 04:30:02;;;;;;;21.50;12.57;;;4.30;99.90;;;;;;5046904;28;20479;-65
2024/01/29 04:32:29;;;;;;;19.97;11.20;;;4.30;99.90;;;;;;5047920;28;20565;-67
2024/01/29 04:34:56;;;;;;;24.90;12.73;;;4.30;99.90;;;;;;5046042;28;20247;-67
2024/01/29 04:37:24;;;;;;;24.27;12.80;;;4.30;99.90;;;;;;5048521;28;20229;-66
2024/01/29 04:39:51;;;;;;;22.77;11.60;;;4.30;99.90;;;;;;5048582;28;20205;-67
2024/01/29 04:42:19;;;;;;;23.80;12.07;;;4.30;99.90;;;;;;5048543;28;20587;-66
2024/01/29 04:44:46;;;;;;;21.83;11.23;;;4.40;99.90;;;;;;5046917;28;20191;-67
2024/01/29 04:47:13;;;;;;;16.53;9.83;;;4.40;99.90;;;;;;5042795;28;20698;-67
2024/01/29 04:49:40;;;;;;;19.80;10.50;;;4.40;99.90;;;;;;5047628;28;20195;-67
2024/01/29 04:52:07;;;;;;;21.97;10.40;;;4.30;99.90;;;;;;5048554;28;20256;-67
2024/01/29 04:54:34;;;;;;;19.80;11.03;;;4.30;99.90;;;;;;5048004;28;20198;-67
2024/01/29 04:57:01;;;;;;;28.20;12.30;;;4.30;99.90;;;;;;5048968;28;20233;-68
2024/01/29 04:59:30;;;;;;;23.90;12.57;;;4.30;99.90;;;;;;5047478;28;20260;-67
2024/01/29 05:01:57;;;;;;;24.97;11.50;;;4.30;99.90;;;;;;5044466;28;20195;-68
2024/01/29 05:04:24;;;;;;;25.90;10.60;;;4.30;99.90;;;;;;5047398;28;20198;-67
2024/01/29 05:06:51;;;;;;;15.23;9.53;;;4.30;99.90;;;;;;5050513;28;20194;-67
2024/01/29 05:09:19;;;;;;;21.70;10.97;;;4.30;99.90;;;;;;5052214;28;20265;-68
2024/01/29 05:11:46;;;;;;;19.90;10.27;;;4.30;99.90;;;;;;5052147;28;20278;-66
2024/01/29 05:14:13;;;;;;;25.17;12.60;;;4.30;99.90;;;;;;5050522;28;20272;-66
2024/01/29 05:16:41;;;;;;;21.87;10.93;;;4.30;99.90;;;;;;5051311;28;20311;-67
2024/01/29 05:19:08;;;;;;;28.57;13.10;;;4.40;99.90;;;;;;5051323;28;20317;-67
2024/01/29 05:21:35;;;;;;;27.43;12.47;;;4.30;99.90;;;;;;5043384;28;20194;-65
2024/01/29 05:24:02;;;;;;;24.93;11.60;;;4.30;99.90;;;;;;5049392;28;20221;-65
2024/01/29 05:26:29;;;;;;;21.97;11.13;;;4.30;99.90;;;;;;5051196;28;20194;-66
2024/01/29 05:28:56;;;;;;;20.53;10.47;;;4.30;99.90;;;;;;5050317;28;20648;-67
2024/01/29 05:31:23;;;;;;;18.57;9.83;;;4.30;99.90;;;;;;5048203;28;20627;-67
2024/01/29 05:33:52;;;;;;;24.10;10.90;;;4.30;99.90;;;;;;5050723;28;20202;-68
2024/01/29 05:36:19;;;;;;;23.87;10.87;;;4.30;99.90;;;;;;5050090;28;20275;-67
2024/01/29 05:38:46;;;;;;;24.13;10.60;;;4.30;99.90;;;;;;5050805;28;20271;-68
2024/01/29 05:41:13;;;;;;;24.83;11.37;;;4.30;99.90;;;;;;5049766;28;20259;-68
2024/01/29 05:43:40;;;;;;;22.83;12.10;;;4.40;99.90;;;;;;5049836;28;20198;-66
2024/01/29 05:46:07;;;;;;;23.10;12.60;;;4.40;99.90;;;;;;5049151;28;20277;-67
2024/01/29 05:48:34;;;;;;;30.77;13.50;;;4.30;99.90;;;;;;5051102;28;20259;-67
2024/01/29 05:51:02;;;;;;;27.80;13.33;;;4.30;99.90;;;;;;5049987;28;20200;-68
2024/01/29 05:53:29;;;;;;;22.93;12.03;;;4.30;99.90;;;;;;5045858;28;20226;-67
2024/01/29 05:55:56;;;;;;;25.83;12.13;;;4.20;99.90;;;;;;5048838;28;20217;-67
2024/01/29 05:58:23;;;;;;;21.07;10.53;;;4.30;99.90;;;;;;5050624;28;20263;-67
2024/01/29 06:00:50;;;;;;;21.43;10.97;;;4.30;99.90;;;;;;5050373;28;20205;-66
2024/01/29 06:03:19;;;;;;;24.37;11.53;;;4.30;99.90;;;;;;5050211;28;20245;-66
2024/01/29 06:05:46;;;;;;;27.43;11.97;;;4.20;99.90;;;;;;5049403;28;20195;-67
2024/01/29 06:08:14;;;;;;;28.90;14.57;;;4.20;99.90;;;;;;5049928;28;20671;-67
2024/01/29 06:10:41;;;;;;;27.87;13.03;;;4.20;99.90;;;;;;5050142;28;20268;-67
2024/01/29 06:13:09;;;;;;;23.20;11.60;;;4.20;99.90;;;;;;5048313;28;20202;-66
2024/01/29 06:15:36;;;;;;;23.03;11.37;;;4.20;99.90;;;;;;5045301;28;20685;-66
2024/01/29 06:18:05;;;;;;;19.23;11.23;;;4.20;99.90;;;;;;5048968;28;20202;-66
2024/01/29 06:20:32;;;;;;;21.57;11.90;;;4.20;99.90;;;;;;5049785;28;20277;-66
2024/01/29 06:22:59;;;;;;;33.17;13.50;;;4.20;99.90;;;;;;5041303;28;20276;-67
2024/01/29 06:25:27;;;;;;;23.17;12.03;;;4.20;99.90;;;;;;5049194;28;20201;-67
2024/01/29 06:27:54;;;;;;;28.20;12.20;;;4.20;99.90;;;;;;5044026;28;20213;-67
2024/01/29 06:30:21;;;;;;;21.63;11.50;;;4.10;99.90;;;;;;5050219;28;20653;-67
2024/01/29 06:32:48;;;;;;;23.03;11.50;;;4.20;99.90;;;;;;5049316;28;20198;-67
2024/01/29 06:35:18;;;;;;;25.97;11.43;;;4.20;99.90;;;;;;5048381;28;20214;-67
2024/01/29 06:37:45;;;;;;;26.83;13.00;;;4.20;99.90;;;;;;5050429;28;20276;-66
2024/01/29 06:40:12;;;;;;;22.63;11.83;;;4.20;99.90;;;;;;5049174;28;20395;-67
2024/01/29 06:42:41;;;;;;;26.20;12.43;;;4.20;99.90;;;;;;5049526;28;20201;-66
2024/01/29 06:45:08;;;;;;;26.47;13.47;;;4.20;99.90;;;;;;5046661;28;20293;-67
2024/01/29 06:47:35;;;;;;;27.47;13.13;;;4.20;99.90;;;;;;5049411;28;20256;-66
2024/01/29 06:50:03;;;;;;;25.60;12.20;;;4.20;99.90;;;;;;5049077;28;20312;-66
2024/01/29 06:52:30;;;;;;;25.10;12.87;;;4.20;99.90;;;;;;5048942;28;20194;-66
2024/01/29 06:54:57;;;;;;;23.40;11.67;;;4.20;99.90;;;;;;5048857;28;20236;-66
2024/01/29 06:57:24;;;;;;;21.43;10.83;;;4.20;99.90;;;;;;5049494;28;20681;-67
2024/01/29 06:59:52;;;;;;;27.87;12.73;;;4.20;99.90;;;;;;5049500;28;20238;-66
2024/01/29 07:02:19;;;;;;;23.97;11.67;;;4.20;99.90;;;;;;5045406;28;20341;-66
2024/01/29 07:04:46;;;;;;;22.70;11.93;;;4.20;99.90;;;;;;5047313;28;20277;-67
2024/01/29 07:07:16;;;;;;;27.47;12.00;;;4.20;99.90;;;;;;5037215;28;20202;-67
2024/01/29 07:09:43;;;;;;;23.40;10.80;;;4.30;99.90;;;;;;5019940;28;20276;-67
2024/01/29 07:12:10;;;;;;;19.70;10.13;;;4.30;99.90;;;;;;5045017;28;20254;-67
2024/01/29 07:14:37;;;;;;;25.10;12.53;;;4.30;99.90;;;;;;5039487;28;20203;-67
2024/01/29 07:17:05;;;;;;;27.50;13.33;;;4.40;99.90;;;;;;5042187;28;20300;-67
2024/01/29 07:19:33;;;;;;;21.83;12.40;;;4.40;99.90;;;;;;5044112;28;20281;-67
2024/01/29 07:22:04;;;;;;;28.50;13.43;;;4.40;99.90;;;;;;5039608;28;20925;-67
2024/01/29 07:24:32;;;;;;;34.03;13.73;;;4.40;99.90;;;;;;5045434;28;20217;-67
2024/01/29 07:26:59;;;;;;;30.87;13.77;;;4.40;99.90;;;;;;5042770;28;20186;-67
2024/01/29 07:29:27;;;;;;;28.83;13.27;;;4.40;99.90;;;;;;5041158;28;20608;-67
2024/01/29 07:31:54;;;;;;;30.13;14.10;;;4.40;99.90;;;;;;5043977;28;20673;-67
2024/01/29 07:34:22;;;;;;;30.33;13.53;;;4.50;99.90;;;;;;5042127;28;20224;-66
2024/01/29 07:36:49;;;;;;;29.37;12.83;;;4.40;99.90;;;;;;5044607;28;20201;-66
2024/01/29 07:39:17;;;;;;;34.47;14.87;;;4.50;99.90;;;;;;5040371;28;20229;-66
2024/01/29 07:41:44;;;;;;;29.53;13.60;;;4.50;99.90;;;;;;5043040;28;20232;-67
2024/01/29 07:44:11;;;;;;;30.97;15.00;;;4.50;99.90;;;;;;5036989;28;20212;-66
2024/01/29 07:46:38;;;;;;;30.27;14.30;;;4.50;99.90;;;;;;5044017;28;20202;-66
2024/01/29 07:49:06;;;;;;;33.67;14.53;;;4.50;99.90;;;;;;5045354;28;20193;-67
2024/01/29 07:51:34;;;;;;;33.13;13.80;;;4.60;99.90;;;;;;5045736;28;20202;-66
2024/01/29 07:54:02;;;;;;;31.13;13.43;;;4.80;99.90;;;;;;5041968;28;20190;-67
2024/01/29 07:56:29;;;;;;;26.00;13.67;;;4.90;99.90;;;;;;5045804;28;20228;-68
2024/01/29 07:58:55;;;;;;;34.30;14.37;;;4.90;99.90;;;;;;5044092;28;20250;-66
2024/01/29 08:01:23;;;;;;;32.37;13.90;;;5.00;99.90;;;;;;5038183;28;20781;-67
2024/01/29 08:04:20;;;;;;;34.77;13.87;;;5.10;99.90;;;;;;5036637;28;20240;-66
2024/01/29 08:06:49;;;;;;;30.77;14.20;;;5.20;99.90;;;;;;5044822;28;20550;-66
2024/01/29 08:09:16;;;;;;;31.30;14.17;;;5.40;99.90;;;;;;5027054;28;20723;-66
2024/01/29 08:11:47;;;;;;;32.33;14.50;;;5.40;99.90;;;;;;5042631;28;20218;-66
2024/01/29 08:14:14;;;;;;;30.57;13.50;;;5.50;99.90;;;;;;5045217;28;20200;-65
2024/01/29 08:16:41;;;;;;;30.63;13.47;;;5.70;99.90;;;;;;5046038;28;20200;-67
2024/01/29 08:19:08;;;;;;;35.53;14.63;;;5.70;99.90;;;;;;5046294;28;20198;-67
2024/01/29 08:21:35;;;;;;;31.17;14.70;;;5.80;99.90;;;;;;5040384;28;20215;-66
2024/01/29 08:24:04;;;;;;;32.20;14.83;;;5.90;99.90;;;;;;5042565;28;20201;-68
2024/01/29 08:26:31;;;;;;;33.07;14.07;;;6.00;99.90;;;;;;5045176;28;20191;-66
2024/01/29 08:28:58;;;;;;;30.40;13.27;;;6.10;99.90;;;;;;5038902;28;20206;-67
2024/01/29 08:31:25;;;;;;;31.27;13.03;;;6.10;99.90;;;;;;5044391;28;20230;-66
2024/01/29 08:33:52;;;;;;;32.37;14.13;;;6.10;99.90;;;;;;5039662;28;20214;-65
2024/01/29 08:36:21;;;;;;;31.57;14.33;;;6.20;99.90;;;;;;5045372;28;20200;-67
2024/01/29 08:38:48;;;;;;;30.17;14.27;;;6.30;99.90;;;;;;5040937;28;20299;-66
2024/01/29 08:41:17;;;;;;;32.40;15.53;;;6.20;99.90;;;;;;5049099;28;20265;-67
2024/01/29 08:43:44;;;;;;;33.40;14.87;;;6.20;99.90;;;;;;5042402;28;20205;-66
2024/01/29 08:46:11;;;;;;;29.53;15.13;;;6.20;99.90;;;;;;5045792;28;20231;-66
2024/01/29 08:48:38;;;;;;;34.80;14.30;;;6.30;99.90;;;;;;5044451;28;20192;-66
2024/01/29 08:51:05;;;;;;;30.80;14.53;;;6.60;99.90;;;;;;5049696;28;20650;-67
2024/01/29 08:53:33;;;;;;;34.10;15.40;;;7.00;99.90;;;;;;5046728;28;20280;-66
2024/01/29 08:56:00;;;;;;;34.13;15.87;;;7.30;99.90;;;;;;5049226;28;20232;-66
2024/01/29 08:58:28;;;;;;;34.17;15.63;;;7.70;99.90;;;;;;5042705;28;20719;-66
2024/01/29 09:00:55;;;;;;;31.77;14.87;;;8.10;99.90;;;;;;5048218;28;20206;-67
2024/01/29 09:03:24;;;;;;;32.10;14.07;;;8.30;99.90;;;;;;5045940;28;20599;-67
2024/01/29 09:05:51;;;;;;;30.77;14.17;;;8.20;99.90;;;;;;5046745;28;20201;-66
2024/01/29 09:08:18;;;;;;;28.17;12.87;;;8.00;99.90;;;;;;5046621;28;20206;-67
2024/01/29 09:10:45;;;;;;;19.10;10.33;;;7.90;99.90;;;;;;5048713;28;20751;-66
2024/01/29 09:13:12;;;;;;;19.57;10.63;;;7.80;99.90;;;;;;5043234;28;20284;-66
2024/01/29 09:15:41;;;;;;;27.10;12.30;;;7.70;99.90;;;;;;5048611;28;20198;-65
2024/01/29 09:18:08;;;;;;;30.83;13.80;;;7.80;99.90;;;;;;5043701;28;20263;-67
2024/01/29 09:20:35;;;;;;;28.77;13.10;;;7.90;99.90;;;;;;5043939;28;20223;-66
2024/01/29 09:23:02;;;;;;;28.30;13.73;;;7.80;99.90;;;;;;5059585;28;20241;-66
2024/01/29 09:25:29;;;;;;;24.67;12.50;;;7.70;99.90;;;;;;5047920;28;20737;-66
2024/01/29 09:27:56;;;;;;;25.57;12.60;;;7.60;99.90;;;;;;5048663;28;20378;-66
2024/01/29 09:30:23;;;;;;;26.13;12.83;;;7.60;99.90;;;;;;5047269;28;20500;-66
2024/01/29 09:32:51;;;;;;;28.23;13.07;;;7.60;99.90;;;;;;5040698;28;20238;-66
2024/01/29 09:35:18;;;;;;;27.07;11.97;;;7.70;99.90;;;;;;5045313;28;20276;-66
2024/01/29 09:37:45;;;;;;;26.97;12.70;;;7.80;99.90;;;;;;5045851;28;20194;-66
2024/01/29 09:40:13;;;;;;;25.30;12.10;;;7.90;99.90;;;;;;5059330;28;20541;-66
2024/01/29 09:42:42;;;;;;;22.23;11.50;;;7.90;99.90;;;;;;5048241;28;20196;-66
2024/01/29 09:45:12;;;;;;;27.17;12.67;;;8.00;99.90;;;;;;5046890;28;20359;-67
2024/01/29 09:47:41;;;;;;;26.47;12.13;;;8.00;99.90;;;;;;5047117;28;20198;-67
2024/01/29 09:50:12;;;;;;;23.00;12.50;;;8.00;99.90;;;;;;5044323;28;20293;-67
2024/01/29 09:52:40;;;;;;;25.07;12.60;;;8.10;99.90;;;;;;5045544;28;20572;-66
2024/01/29 09:55:10;;;;;;;23.90;11.83;;;8.20;99.90;;;;;;5047541;28;20191;-67
2024/01/29 09:57:37;;;;;;;23.57;11.77;;;8.30;99.90;;;;;;5043412;28;20206;-66
2024/01/29 10:00:06;;;;;;;25.20;11.97;;;8.50;99.90;;;;;;5045924;28;20325;-66
2024/01/29 10:02:35;;;;;;;24.00;11.83;;;8.50;99.90;;;;;;5044688;28;20385;-67
2024/01/29 10:05:02;;;;;;;27.50;11.53;;;8.50;99.90;;;;;;5043682;28;20604;-66
2024/01/29 10:07:30;;;;;;;23.17;11.60;;;8.60;99.90;;;;;;5044009;28;20208;-67
2024/01/29 10:09:57;;;;;;;31.27;13.30;;;8.60;99.90;;;;;;5045489;28;20273;-66
2024/01/29 10:12:26;;;;;;;28.53;13.70;;;8.80;99.90;;;;;;5047617;28;20675;-66
2024/01/29 10:14:55;;;;;;;30.57;14.60;;;8.90;99.90;;;;;;5047163;28;20216;-66
2024/01/29 10:17:23;;;;;;;26.67;14.10;;;9.20;99.90;;;;;;5044377;28;20193;-67
2024/01/29 10:19:50;;;;;;;25.57;13.37;;;9.40;99.90;;;;;;5046791;28;20225;-67
2024/01/29 10:22:17;;;;;;;25.67;12.63;;;9.70;99.80;;;;;;5047370;28;20305;-66
2024/01/29 10:24:46;;;;;;;31.13;13.53;;;10.10;98.90;;;;;;5039819;28;20204;-66
2024/01/29 10:27:14;;;;;;;23.67;12.00;;;10.40;98.20;;;;;;5046846;28;20201;-67
2024/01/29 10:29:48;;;;;;;27.90;12.10;;;10.70;97.90;;;;;;5039267;28;20200;-67
2024/01/29 10:32:15;;;;;;;26.37;12.40;;;11.20;97.60;;;;;;5047345;28;20569;-66
2024/01/29 10:34:42;;;;;;;26.13;12.80;;;11.60;96.90;;;;;;5043356;28;20671;-67
2024/01/29 10:37:11;;;;;;;25.37;12.37;;;11.80;95.90;;;;;;5047031;28;20201;-66
2024/01/29 10:39:40;;;;;;;26.20;12.43;;;11.80;95.00;;;;;;5044107;28;20196;-67
2024/01/29 10:42:09;;;;;;;22.37;11.17;;;11.90;94.60;;;;;;5047668;28;20703;-67
2024/01/29 10:44:39;;;;;;;22.47;11.20;;;12.10;94.60;;;;;;5041703;28;20219;-67
2024/01/29 10:47:24;;;;;;;26.17;10.83;;;12.10;94.40;;;;;;5044577;28;20388;-65
2024/01/29 10:49:52;;;;;;;25.07;12.30;;;12.10;94.40;;;;;;5036465;28;20288;-66
2024/01/29 10:52:20;;;;;;;23.90;12.63;;;12.10;93.80;;;;;;5044965;28;20190;-66
2024/01/29 10:54:48;;;;;;;24.17;12.27;;;12.00;93.40;;;;;;5044095;28;20229;-66
2024/01/29 10:57:18;;;;;;;18.70;10.77;;;11.70;93.30;;;;;;5044533;28;20286;-66
2024/01/29 10:59:45;;;;;;;22.53;11.40;;;11.50;93.60;;;;;;5037205;28;20204;-66
2024/01/29 11:02:15;;;;;;;21.63;11.40;;;11.30;93.50;;;;;;5043189;28;20296;-66
2024/01/29 11:04:42;;;;;;;25.43;11.97;;;11.20;93.80;;;;;;5045685;28;20185;-65
2024/01/29 11:07:15;;;;;;;26.07;12.77;;;11.00;93.80;;;;;;5043909;28;20198;-66
2024/01/29 11:09:48;;;;;;;19.87;10.87;;;10.80;94.00;;;;;;5045565;28;20198;-65
2024/01/29 11:12:17;;;;;;;19.40;10.10;;;10.60;94.30;;;;;;5042036;28;20272;-66
2024/01/29 11:14:47;;;;;;;20.33;10.17;;;10.50;94.70;;;;;;5043887;28;20203;-65
2024/01/29 11:17:24;;;;;;;17.93;10.10;;;10.40;95.00;;;;;;5045294;28;20360;-67
2024/01/29 11:19:52;;;;;;;30.20;12.80;;;10.40;95.30;;;;;;5036948;28;20197;-66
2024/01/29 11:22:19;;;;;;;24.10;11.33;;;10.50;95.20;;;;;;5046674;28;20413;-66
2024/01/29 11:24:47;;;;;;;21.10;9.97;;;10.70;94.90;;;;;;5046289;28;20328;-65
2024/01/29 11:27:14;;;;;;;20.37;10.10;;;10.80;94.60;;;;;;5042313;28;20213;-67
2024/01/29 11:29:46;;;;;;;22.73;11.93;;;10.80;94.60;;;;;;5046189;28;20542;-66
2024/01/29 11:32:15;;;;;;;25.03;11.90;;;10.70;94.40;;;;;;5043767;28;20215;-66
2024/01/29 11:34:44;;;;;;;19.60;10.40;;;10.60;94.60;;;;;;5040463;28;20205;-66
2024/01/29 11:37:11;;;;;;;22.50;11.07;;;10.40;94.80;;;;;;5045813;28;20288;-67
2024/01/29 11:39:44;;;;;;;23.70;10.77;;;10.30;94.90;;;;;;5044985;28;20484;-66
2024/01/29 11:42:12;;;;;;;25.13;12.30;;;10.20;95.10;;;;;;5038597;28;20215;-67
2024/01/29 11:44:41;;;;;;;22.93;11.03;;;10.10;94.60;;;;;;5046731;28;20195;-66
2024/01/29 11:47:10;;;;;;;18.07;9.43;;;10.00;94.90;;;;;;5044277;28;20369;-67
2024/01/29 11:49:37;;;;;;;21.80;10.47;;;9.90;95.70;;;;;;5046173;28;20627;-66
2024/01/29 11:52:07;;;;;;;24.33;11.70;;;9.90;95.80;;;;;;5045531;28;20228;-67
2024/01/29 11:54:35;;;;;;;22.23;10.13;;;9.80;95.70;;;;;;5047642;28;20237;-66
2024/01/29 11:57:02;;;;;;;18.50;9.33;;;9.80;95.80;;;;;;5042109;28;20194;-66
2024/01/29 11:59:29;;;;;;;22.93;10.70;;;9.70;96.00;;;;;;5044739;28;20205;-67
2024/01/29 12:01:56;;;;;;;19.47;9.60;;;9.60;96.00;;;;;;5045312;28;20217;-67
2024/01/29 12:04:24;;;;;;;27.93;11.00;;;9.60;96.10;;;;;;5044215;28;20229;-67
2024/01/29 12:06:53;;;;;;;25.07;12.27;;;9.50;96.10;;;;;;5042659;28;20270;-67
2024/01/29 12:09:20;;;;;;;25.20;11.73;;;9.50;96.20;;;;;;5036110;28;20196;-67
2024/01/29 12:11:47;;;;;;;29.03;14.03;;;9.40;96.20;;;;;;5043099;28;20714;-66
2024/01/29 12:14:15;;;;;;;27.33;13.30;;;9.40;96.30;;;;;;5045291;28;20216;-67
2024/01/29 12:16:42;;;;;;;24.23;12.17;;;9.40;96.40;;;;;;5033413;28;20201;-67
2024/01/29 12:19:09;;;;;;;33.23;14.03;;;9.30;96.40;;;;;;5048851;28;20455;-67
2024/01/29 12:21:38;;;;;;;23.03;11.87;;;9.30;96.60;;;;;;5036072;28;20224;-67
2024/01/29 12:24:05;;;;;;;24.50;12.50;;;9.20;96.80;;;;;;5048748;28;20286;-67
2024/01/29 12:26:33;;;;;;;25.27;12.87;;;9.20;97.00;;;;;;5040266;28;20862;-66
2024/01/29 12:29:00;;;;;;;29.40;13.40;;;9.20;97.10;;;;;;5048583;28;20203;-65
2024/01/29 12:31:27;;;;;;;25.80;13.43;;;9.10;97.00;;;;;;5048027;28;20592;-67
2024/01/29 12:33:54;;;;;;;30.80;13.40;;;9.10;97.20;;;;;;5049571;28;20259;-65
2024/01/29 12:36:21;;;;;;;25.83;12.03;;;9.00;97.30;;;;;;5046675;28;20189;-66
2024/01/29 12:38:54;;;;;;;26.07;13.87;;;9.00;97.60;;;;;;5049142;28;20688;-66
2024/01/29 12:41:21;;;;;;;22.87;13.20;;;8.90;97.50;;;;;;5048626;28;20315;-67